sensor_id;sensor_type;location;lat;lon;timestamp;P1;durP1;ratioP1;P2;durP2;ratioP2
60306;SDS011;46155;52.364;6.580;2023-11-21T04:02:23;45.73;;;31.53;;
60306;SDS011;46155;52.364;6.580;2023-11-21T04:04:50;46.00;;;31.10;;
60306;SDS011;46155;52.364;6.580;2023-11-21T04:07:16;43.43;;;31.47;;
60306;SDS011;46155;52.364;6.580;2023-11-21T04:09:42;47.20;;;35.57;;
60306;SDS011;46155;52.364;6.580;2023-11-21T04:12:08;49.83;;;30.43;;
60306;SDS011;46155;52.364;6.580;2023-11-21T04:14:36;50.10;;;32.83;;
60306;SDS011;46155;52.364;6.580;2023-11-21T04:17:01;49.47;;;34.07;;
60306;SDS011;46155;52.364;6.580;2023-11-21T04:19:29;45.00;;;31.57;;
60306;SDS011;46155;52.364;6.580;2023-11-21T04:21:54;47.50;;;32.73;;
60306;SDS011;46155;52.364;6.580;2023-11-21T04:24:19;48.27;;;33.77;;
60306;SDS011;46155;52.364;6.580;2023-11-21T04:26:45;43.40;;;31.87;;
60306;SDS011;46155;52.364;6.580;2023-11-21T04:29:10;46.97;;;30.13;;
60306;SDS011;46155;52.364;6.580;2023-11-21T04:31:36;47.83;;;31.13;;
60306;SDS011;46155;52.364;6.580;2023-11-21T04:34:01;40.03;;;29.63;;
60306;SDS011;46155;52.364;6.580;2023-11-21T04:36:29;47.50;;;30.77;;
60306;SDS011;46155;52.364;6.580;2023-11-21T04:38:56;48.40;;;32.20;;
60306;SDS011;46155;52.364;6.580;2023-11-21T04:41:21;48.57;;;32.87;;
60306;SDS011;46155;52.364;6.580;2023-11-21T04:43:47;46.33;;;31.70;;
60306;SDS011;46155;52.364;6.580;2023-11-21T04:46:12;40.87;;;31.57;;
60306;SDS011;46155;52.364;6.580;2023-11-21T04:48:38;46.00;;;31.70;;
60306;SDS011;46155;52.364;6.580;2023-11-21T04:51:03;39.70;;;30.27;;
60306;SDS011;46155;52.364;6.580;2023-11-21T04:53:29;48.83;;;36.80;;
60306;SDS011;46155;52.364;6.580;2023-11-21T04:55:55;41.87;;;29.40;;
60306;SDS011;46155;52.364;6.580;2023-11-21T04:58:20;36.83;;;27.60;;
60306;SDS011;46155;52.364;6.580;2023-11-21T05:00:45;45.77;;;30.07;;
60306;SDS011;46155;52.364;6.580;2023-11-21T05:03:11;40.57;;;26.90;;
60306;SDS011;46155;52.364;6.580;2023-11-21T05:05:37;43.50;;;30.13;;
60306;SDS011;46155;52.364;6.580;2023-11-21T05:08:02;40.63;;;28.90;;
60306;SDS011;46155;52.364;6.580;2023-11-21T05:10:28;36.43;;;30.13;;
60306;SDS011;46155;52.364;6.580;2023-11-21T05:12:54;44.80;;;29.37;;
60306;SDS011;46155;52.364;6.580;2023-11-21T05:15:20;41.73;;;28.93;;
60306;SDS011;46155;52.364;6.580;2023-11-21T05:17:46;38.53;;;27.70;;
60306;SDS011;46155;52.364;6.580;2023-11-21T05:20:14;40.27;;;30.27;;
60306;SDS011;46155;52.364;6.580;2023-11-21T05:22:43;39.50;;;30.50;;
60306;SDS011;46155;52.364;6.580;2023-11-21T05:25:09;38.47;;;29.77;;
60306;SDS011;46155;52.364;6.580;2023-11-21T05:27:34;45.43;;;29.17;;
60306;SDS011;46155;52.364;6.580;2023-11-21T05:30:01;42.00;;;28.53;;
60306;SDS011;46155;52.364;6.580;2023-11-21T05:32:30;34.47;;;26.67;;
60306;SDS011;46155;52.364;6.580;2023-11-21T05:34:55;39.43;;;28.10;;
60306;SDS011;46155;52.364;6.580;2023-11-21T05:37:20;44.77;;;29.27;;
60306;SDS011;46155;52.364;6.580;2023-11-21T05:39:46;42.30;;;29.43;;
60306;SDS011;46155;52.364;6.580;2023-11-21T05:42:12;43.00;;;28.83;;
60306;SDS011;46155;52.364;6.580;2023-11-21T05:44:37;41.80;;;31.47;;
60306;SDS011;46155;52.364;6.580;2023-11-21T05:47:07;40.60;;;30.97;;
60306;SDS011;46155;52.364;6.580;2023-11-21T05:49:32;38.57;;;29.63;;
60306;SDS011;46155;52.364;6.580;2023-11-21T05:51:58;44.40;;;32.70;;
60306;SDS011;46155;52.364;6.580;2023-11-21T05:54:24;43.40;;;30.67;;
60306;SDS011;46155;52.364;6.580;2023-11-21T05:56:50;41.80;;;30.60;;
60306;SDS011;46155;52.364;6.580;2023-11-21T05:59:15;46.77;;;31.27;;
60306;SDS011;46155;52.364;6.580;2023-11-21T06:01:40;48.50;;;32.97;;
60306;SDS011;46155;52.364;6.580;2023-11-21T06:04:05;45.07;;;32.97;;
60306;SDS011;46155;52.364;6.580;2023-11-21T06:06:33;49.37;;;34.20;;
60306;SDS011;46155;52.364;6.580;2023-11-21T06:08:58;49.83;;;35.13;;
60306;SDS011;46155;52.364;6.580;2023-11-21T06:11:23;49.07;;;36.53;;
60306;SDS011;46155;52.364;6.580;2023-11-21T06:13:49;46.93;;;34.70;;
60306;SDS011;46155;52.364;6.580;2023-11-21T06:16:15;41.97;;;32.83;;
60306;SDS011;46155;52.364;6.580;2023-11-21T06:18:42;50.23;;;35.27;;
60306;SDS011;46155;52.364;6.580;2023-11-21T06:21:11;49.13;;;34.50;;
60306;SDS011;46155;52.364;6.580;2023-11-21T06:23:36;47.83;;;32.83;;
60306;SDS011;46155;52.364;6.580;2023-11-21T06:26:02;47.40;;;32.30;;
60306;SDS011;46155;52.364;6.580;2023-11-21T06:28:28;45.67;;;31.80;;
60306;SDS011;46155;52.364;6.580;2023-11-21T06:30:53;42.53;;;30.77;;
60306;SDS011;46155;52.364;6.580;2023-11-21T06:33:19;40.53;;;30.00;;
60306;SDS011;46155;52.364;6.580;2023-11-21T06:35:45;51.33;;;33.80;;
60306;SDS011;46155;52.364;6.580;2023-11-21T06:38:10;51.70;;;32.73;;
60306;SDS011;46155;52.364;6.580;2023-11-21T06:40:35;41.63;;;33.83;;
60306;SDS011;46155;52.364;6.580;2023-11-21T06:43:01;42.37;;;32.67;;
60306;SDS011;46155;52.364;6.580;2023-11-21T06:45:27;49.07;;;33.67;;
60306;SDS011;46155;52.364;6.580;2023-11-21T06:47:52;44.17;;;32.77;;
60306;SDS011;46155;52.364;6.580;2023-11-21T06:50:18;43.90;;;35.10;;
60306;SDS011;46155;52.364;6.580;2023-11-21T06:52:43;47.80;;;35.37;;
60306;SDS011;46155;52.364;6.580;2023-11-21T06:55:09;47.23;;;37.80;;
60306;SDS011;46155;52.364;6.580;2023-11-21T06:57:34;40.93;;;32.30;;
60306;SDS011;46155;52.364;6.580;2023-11-21T07:00:00;48.00;;;34.17;;
60306;SDS011;46155;52.364;6.580;2023-11-21T07:02:25;42.37;;;33.43;;
60306;SDS011;46155;52.364;6.580;2023-11-21T07:04:51;46.23;;;35.33;;
60306;SDS011;46155;52.364;6.580;2023-11-21T07:07:16;51.40;;;35.90;;
60306;SDS011;46155;52.364;6.580;2023-11-21T07:09:41;44.93;;;32.13;;
60306;SDS011;46155;52.364;6.580;2023-11-21T07:12:07;42.93;;;31.57;;
60306;SDS011;46155;52.364;6.580;2023-11-21T07:14:35;48.27;;;32.97;;
60306;SDS011;46155;52.364;6.580;2023-11-21T07:17:02;43.23;;;31.50;;
60306;SDS011;46155;52.364;6.580;2023-11-21T07:19:27;40.77;;;30.60;;
60306;SDS011;46155;52.364;6.580;2023-11-21T07:21:52;41.47;;;30.30;;
60306;SDS011;46155;52.364;6.580;2023-11-21T07:24:18;48.57;;;31.80;;
60306;SDS011;46155;52.364;6.580;2023-11-21T07:26:43;43.43;;;28.40;;
60306;SDS011;46155;52.364;6.580;2023-11-21T07:29:09;42.20;;;29.23;;
60306;SDS011;46155;52.364;6.580;2023-11-21T07:31:36;39.53;;;27.00;;
60306;SDS011;46155;52.364;6.580;2023-11-21T07:34:02;48.13;;;29.00;;
60306;SDS011;46155;52.364;6.580;2023-11-21T07:36:27;53.57;;;28.27;;
60306;SDS011;46155;52.364;6.580;2023-11-21T07:38:53;44.70;;;27.93;;
60306;SDS011;46155;52.364;6.580;2023-11-21T07:41:19;47.10;;;31.13;;
60306;SDS011;46155;52.364;6.580;2023-11-21T07:43:44;50.13;;;31.23;;
60306;SDS011;46155;52.364;6.580;2023-11-21T07:46:10;45.40;;;29.03;;
60306;SDS011;46155;52.364;6.580;2023-11-21T07:48:37;47.33;;;30.47;;
60306;SDS011;46155;52.364;6.580;2023-11-21T07:51:03;53.23;;;31.47;;
60306;SDS011;46155;52.364;6.580;2023-11-21T07:53:28;48.23;;;30.57;;
60306;SDS011;46155;52.364;6.580;2023-11-21T07:55:55;53.00;;;34.00;;
60306;SDS011;46155;52.364;6.580;2023-11-21T07:58:21;51.47;;;32.93;;
60306;SDS011;46155;52.364;6.580;2023-11-21T08:00:46;52.57;;;33.50;;
60306;SDS011;46155;52.364;6.580;2023-11-21T08:03:13;53.17;;;34.07;;
60306;SDS011;46155;52.364;6.580;2023-11-21T08:05:38;53.07;;;35.57;;
60306;SDS011;46155;52.364;6.580;2023-11-21T08:08:04;59.73;;;36.30;;
60306;SDS011;46155;52.364;6.580;2023-11-21T08:10:29;60.00;;;35.73;;
60306;SDS011;46155;52.364;6.580;2023-11-21T08:12:55;65.33;;;41.00;;
60306;SDS011;46155;52.364;6.580;2023-11-21T08:15:20;61.67;;;38.47;;
60306;SDS011;46155;52.364;6.580;2023-11-21T08:17:46;58.10;;;39.57;;
60306;SDS011;46155;52.364;6.580;2023-11-21T08:20:12;61.03;;;42.53;;
60306;SDS011;46155;52.364;6.580;2023-11-21T08:22:37;60.27;;;41.40;;
60306;SDS011;46155;52.364;6.580;2023-11-21T08:25:06;66.17;;;41.97;;
60306;SDS011;46155;52.364;6.580;2023-11-21T08:27:32;61.63;;;39.43;;
60306;SDS011;46155;52.364;6.580;2023-11-21T08:29:59;70.70;;;43.33;;
60306;SDS011;46155;52.364;6.580;2023-11-21T08:32:25;71.77;;;44.83;;
60306;SDS011;46155;52.364;6.580;2023-11-21T08:34:50;71.97;;;48.20;;
60306;SDS011;46155;52.364;6.580;2023-11-21T08:37:16;80.20;;;48.33;;
60306;SDS011;46155;52.364;6.580;2023-11-21T08:39:43;89.90;;;50.37;;
60306;SDS011;46155;52.364;6.580;2023-11-21T08:42:09;81.77;;;47.57;;
60306;SDS011;46155;52.364;6.580;2023-11-21T08:44:35;86.90;;;48.60;;
60306;SDS011;46155;52.364;6.580;2023-11-21T08:47:01;80.57;;;47.03;;
60306;SDS011;46155;52.364;6.580;2023-11-21T08:49:26;80.90;;;48.17;;
60306;SDS011;46155;52.364;6.580;2023-11-21T08:51:53;79.63;;;47.67;;
60306;SDS011;46155;52.364;6.580;2023-11-21T08:54:20;76.90;;;48.30;;
60306;SDS011;46155;52.364;6.580;2023-11-21T08:56:46;82.17;;;47.73;;
60306;SDS011;46155;52.364;6.580;2023-11-21T08:59:11;86.83;;;51.83;;
60306;SDS011;46155;52.364;6.580;2023-11-21T09:01:39;97.90;;;53.03;;
60306;SDS011;46155;52.364;6.580;2023-11-21T09:04:05;85.50;;;53.10;;
60306;SDS011;46155;52.364;6.580;2023-11-21T09:06:31;84.60;;;51.23;;
60306;SDS011;46155;52.364;6.580;2023-11-21T09:08:56;77.20;;;50.83;;
60306;SDS011;46155;52.364;6.580;2023-11-21T09:11:22;97.00;;;51.80;;
60306;SDS011;46155;52.364;6.580;2023-11-21T09:13:50;88.23;;;52.83;;
60306;SDS011;46155;52.364;6.580;2023-11-21T09:16:16;82.07;;;47.20;;
60306;SDS011;46155;52.364;6.580;2023-11-21T09:18:42;84.30;;;51.80;;
60306;SDS011;46155;52.364;6.580;2023-11-21T09:21:07;79.43;;;48.47;;
60306;SDS011;46155;52.364;6.580;2023-11-21T09:23:33;80.17;;;51.87;;
60306;SDS011;46155;52.364;6.580;2023-11-21T09:25:59;82.37;;;52.60;;
60306;SDS011;46155;52.364;6.580;2023-11-21T09:28:25;78.80;;;49.67;;
60306;SDS011;46155;52.364;6.580;2023-11-21T09:30:52;76.10;;;47.83;;
60306;SDS011;46155;52.364;6.580;2023-11-21T09:33:17;69.57;;;46.23;;
60306;SDS011;46155;52.364;6.580;2023-11-21T09:35:43;72.43;;;46.07;;
60306;SDS011;46155;52.364;6.580;2023-11-21T09:38:09;80.17;;;45.40;;
60306;SDS011;46155;52.364;6.580;2023-11-21T09:40:36;73.27;;;45.43;;
60306;SDS011;46155;52.364;6.580;2023-11-21T09:43:03;75.93;;;47.50;;
60306;SDS011;46155;52.364;6.580;2023-11-21T09:45:34;64.10;;;46.10;;
60306;SDS011;46155;52.364;6.580;2023-11-21T09:48:00;63.03;;;46.43;;
60306;SDS011;46155;52.364;6.580;2023-11-21T09:50:26;69.43;;;46.43;;
60306;SDS011;46155;52.364;6.580;2023-11-21T09:52:54;70.77;;;44.57;;
60306;SDS011;46155;52.364;6.580;2023-11-21T09:55:44;69.53;;;46.23;;
60306;SDS011;46155;52.364;6.580;2023-11-21T09:58:12;59.37;;;42.83;;
60306;SDS011;46155;52.364;6.580;2023-11-21T10:00:41;57.70;;;41.90;;
60306;SDS011;46155;52.364;6.580;2023-11-21T10:03:08;64.23;;;39.13;;
60306;SDS011;46155;52.364;6.580;2023-11-21T10:05:35;59.57;;;43.50;;
60306;SDS011;46155;52.364;6.580;2023-11-21T10:08:01;57.60;;;42.80;;
60306;SDS011;46155;52.364;6.580;2023-11-21T10:10:27;63.87;;;40.03;;
60306;SDS011;46155;52.364;6.580;2023-11-21T10:12:57;54.70;;;42.20;;
60306;SDS011;46155;52.364;6.580;2023-11-21T10:15:27;59.40;;;45.03;;
60306;SDS011;46155;52.364;6.580;2023-11-21T10:17:55;74.60;;;46.53;;
60306;SDS011;46155;52.364;6.580;2023-11-21T10:20:20;65.33;;;43.30;;
60306;SDS011;46155;52.364;6.580;2023-11-21T10:22:49;54.73;;;40.90;;
60306;SDS011;46155;52.364;6.580;2023-11-21T10:25:14;55.43;;;43.13;;
60306;SDS011;46155;52.364;6.580;2023-11-21T10:27:40;55.60;;;38.40;;
60306;SDS011;46155;52.364;6.580;2023-11-21T10:30:06;49.47;;;38.17;;
60306;SDS011;46155;52.364;6.580;2023-11-21T10:32:37;51.00;;;37.47;;
60306;SDS011;46155;52.364;6.580;2023-11-21T10:35:05;55.00;;;41.73;;
60306;SDS011;46155;52.364;6.580;2023-11-21T10:37:37;47.97;;;35.87;;
60306;SDS011;46155;52.364;6.580;2023-11-21T10:40:06;52.90;;;38.00;;
60306;SDS011;46155;52.364;6.580;2023-11-21T10:42:33;52.43;;;41.03;;
60306;SDS011;46155;52.364;6.580;2023-11-21T10:44:58;52.53;;;42.37;;
60306;SDS011;46155;52.364;6.580;2023-11-21T10:47:24;48.00;;;38.47;;
60306;SDS011;46155;52.364;6.580;2023-11-21T10:49:51;51.63;;;36.97;;
60306;SDS011;46155;52.364;6.580;2023-11-21T10:52:20;48.93;;;37.83;;
60306;SDS011;46155;52.364;6.580;2023-11-21T10:54:46;44.57;;;36.43;;
60306;SDS011;46155;52.364;6.580;2023-11-21T10:57:12;43.23;;;34.90;;
60306;SDS011;46155;52.364;6.580;2023-11-21T10:59:42;51.53;;;38.70;;
60306;SDS011;46155;52.364;6.580;2023-11-21T11:02:19;43.40;;;34.50;;
60306;SDS011;46155;52.364;6.580;2023-11-21T11:04:50;42.10;;;35.20;;
60306;SDS011;46155;52.364;6.580;2023-11-21T11:07:17;44.87;;;36.50;;
60306;SDS011;46155;52.364;6.580;2023-11-21T11:09:44;40.50;;;34.80;;
60306;SDS011;46155;52.364;6.580;2023-11-21T11:12:10;49.63;;;36.50;;
60306;SDS011;46155;52.364;6.580;2023-11-21T11:14:36;41.43;;;34.13;;
60306;SDS011;46155;52.364;6.580;2023-11-21T11:17:06;47.67;;;34.53;;
60306;SDS011;46155;52.364;6.580;2023-11-21T11:19:33;48.43;;;36.17;;
60306;SDS011;46155;52.364;6.580;2023-11-21T11:25:34;47.03;;;39.73;;
60306;SDS011;46155;52.364;6.580;2023-11-21T11:27:52;41.97;;;36.77;;
60306;SDS011;46155;52.364;6.580;2023-11-21T11:33:06;49.67;;;38.83;;
60306;SDS011;46155;52.364;6.580;2023-11-21T11:35:52;59.50;;;41.13;;
60306;SDS011;46155;52.364;6.580;2023-11-21T11:38:30;47.70;;;42.07;;
60306;SDS011;46155;52.364;6.580;2023-11-21T11:40:58;50.37;;;41.97;;
60306;SDS011;46155;52.364;6.580;2023-11-21T11:43:30;53.50;;;42.53;;
60306;SDS011;46155;52.364;6.580;2023-11-21T11:46:09;61.67;;;42.90;;
60306;SDS011;46155;52.364;6.580;2023-11-21T11:48:38;56.40;;;42.10;;
60306;SDS011;46155;52.364;6.580;2023-11-21T11:51:11;59.80;;;42.47;;
60306;SDS011;46155;52.364;6.580;2023-11-21T11:53:46;61.63;;;43.63;;
60306;SDS011;46155;52.364;6.580;2023-11-21T11:58:45;65.47;;;47.93;;
60306;SDS011;46155;52.364;6.580;2023-11-21T12:01:11;71.90;;;45.90;;
60306;SDS011;46155;52.364;6.580;2023-11-21T12:03:37;61.00;;;43.33;;
60306;SDS011;46155;52.364;6.580;2023-11-21T12:06:02;65.30;;;43.97;;
60306;SDS011;46155;52.364;6.580;2023-11-21T12:08:28;63.10;;;45.33;;
60306;SDS011;46155;52.364;6.580;2023-11-21T12:10:56;59.40;;;43.37;;
60306;SDS011;46155;52.364;6.580;2023-11-21T12:13:22;64.03;;;45.73;;
60306;SDS011;46155;52.364;6.580;2023-11-21T12:15:48;62.67;;;46.03;;
60306;SDS011;46155;52.364;6.580;2023-11-21T12:18:14;61.77;;;44.03;;
60306;SDS011;46155;52.364;6.580;2023-11-21T12:20:39;57.10;;;42.43;;
60306;SDS011;46155;52.364;6.580;2023-11-21T12:23:06;45.57;;;38.50;;
60306;SDS011;46155;52.364;6.580;2023-11-21T12:25:34;49.00;;;38.20;;
60306;SDS011;46155;52.364;6.580;2023-11-21T12:28:01;50.67;;;40.00;;
60306;SDS011;46155;52.364;6.580;2023-11-21T12:30:31;45.33;;;39.80;;
60306;SDS011;46155;52.364;6.580;2023-11-21T12:33:00;50.90;;;38.97;;
60306;SDS011;46155;52.364;6.580;2023-11-21T12:35:27;51.40;;;36.90;;
60306;SDS011;46155;52.364;6.580;2023-11-21T12:37:55;44.90;;;34.87;;
60306;SDS011;46155;52.364;6.580;2023-11-21T12:40:22;31.50;;;27.97;;
60306;SDS011;46155;52.364;6.580;2023-11-21T12:42:48;32.83;;;26.67;;
60306;SDS011;46155;52.364;6.580;2023-11-21T12:47:42;28.87;;;23.63;;
60306;SDS011;46155;52.364;6.580;2023-11-21T12:50:09;32.87;;;26.47;;
60306;SDS011;46155;52.364;6.580;2023-11-21T12:52:42;30.27;;;24.70;;
60306;SDS011;46155;52.364;6.580;2023-11-21T12:55:17;25.17;;;22.50;;
60306;SDS011;46155;52.364;6.580;2023-11-21T12:57:44;25.70;;;20.87;;
60306;SDS011;46155;52.364;6.580;2023-11-21T13:00:10;25.10;;;21.80;;
60306;SDS011;46155;52.364;6.580;2023-11-21T13:02:49;22.43;;;20.00;;
60306;SDS011;46155;52.364;6.580;2023-11-21T13:05:22;23.47;;;19.87;;
60306;SDS011;46155;52.364;6.580;2023-11-21T13:07:52;25.83;;;20.07;;
60306;SDS011;46155;52.364;6.580;2023-11-21T13:10:19;23.67;;;18.30;;
60306;SDS011;46155;52.364;6.580;2023-11-21T13:12:59;22.60;;;19.37;;
60306;SDS011;46155;52.364;6.580;2023-11-21T13:15:27;22.00;;;17.50;;
60306;SDS011;46155;52.364;6.580;2023-11-21T13:17:53;18.40;;;16.33;;
60306;SDS011;46155;52.364;6.580;2023-11-21T13:20:19;27.17;;;19.77;;
60306;SDS011;46155;52.364;6.580;2023-11-21T13:22:52;20.20;;;17.03;;
60306;SDS011;46155;52.364;6.580;2023-11-21T13:25:23;21.97;;;15.73;;
60306;SDS011;46155;52.364;6.580;2023-11-21T13:27:49;19.27;;;14.87;;
60306;SDS011;46155;52.364;6.580;2023-11-21T13:30:16;15.53;;;13.57;;
60306;SDS011;46155;52.364;6.580;2023-11-21T13:32:42;19.27;;;15.17;;
60306;SDS011;46155;52.364;6.580;2023-11-21T13:35:12;16.67;;;13.17;;
60306;SDS011;46155;52.364;6.580;2023-11-21T13:37:48;18.47;;;14.20;;
60306;SDS011;46155;52.364;6.580;2023-11-21T13:40:17;18.17;;;12.03;;
60306;SDS011;46155;52.364;6.580;2023-11-21T13:42:47;20.33;;;13.17;;
60306;SDS011;46155;52.364;6.580;2023-11-21T13:45:13;16.03;;;12.57;;
60306;SDS011;46155;52.364;6.580;2023-11-21T13:47:38;18.97;;;14.10;;
60306;SDS011;46155;52.364;6.580;2023-11-21T13:50:05;16.17;;;12.67;;
60306;SDS011;46155;52.364;6.580;2023-11-21T13:52:41;15.40;;;11.80;;
60306;SDS011;46155;52.364;6.580;2023-11-21T13:55:07;17.87;;;11.10;;
60306;SDS011;46155;52.364;6.580;2023-11-21T13:57:39;16.00;;;11.63;;
60306;SDS011;46155;52.364;6.580;2023-11-21T14:00:04;15.73;;;12.47;;
60306;SDS011;46155;52.364;6.580;2023-11-21T14:02:35;15.30;;;11.53;;
60306;SDS011;46155;52.364;6.580;2023-11-21T14:05:07;12.83;;;11.10;;
60306;SDS011;46155;52.364;6.580;2023-11-21T14:07:34;18.00;;;12.07;;
60306;SDS011;46155;52.364;6.580;2023-11-21T14:10:03;14.33;;;11.57;;
60306;SDS011;46155;52.364;6.580;2023-11-21T14:12:31;13.20;;;11.13;;
60306;SDS011;46155;52.364;6.580;2023-11-21T14:15:01;14.30;;;11.70;;
60306;SDS011;46155;52.364;6.580;2023-11-21T14:17:29;14.23;;;10.50;;
60306;SDS011;46155;52.364;6.580;2023-11-21T14:19:55;15.10;;;11.90;;
60306;SDS011;46155;52.364;6.580;2023-11-21T14:22:21;16.73;;;11.07;;
60306;SDS011;46155;52.364;6.580;2023-11-21T14:24:46;13.73;;;10.47;;
60306;SDS011;46155;52.364;6.580;2023-11-21T14:27:12;13.80;;;10.27;;
60306;SDS011;46155;52.364;6.580;2023-11-21T14:29:39;16.53;;;11.07;;
60306;SDS011;46155;52.364;6.580;2023-11-21T14:32:08;16.50;;;12.27;;
60306;SDS011;46155;52.364;6.580;2023-11-21T14:34:35;17.17;;;12.13;;
60306;SDS011;46155;52.364;6.580;2023-11-21T14:37:01;13.13;;;10.63;;
60306;SDS011;46155;52.364;6.580;2023-11-21T14:39:28;18.07;;;10.70;;
60306;SDS011;46155;52.364;6.580;2023-11-21T14:41:54;16.73;;;10.70;;
60306;SDS011;46155;52.364;6.580;2023-11-21T14:44:21;20.43;;;11.43;;
60306;SDS011;46155;52.364;6.580;2023-11-21T14:46:51;16.07;;;11.30;;
60306;SDS011;46155;52.364;6.580;2023-11-21T14:49:17;13.67;;;9.90;;
60306;SDS011;46155;52.364;6.580;2023-11-21T14:51:49;14.87;;;10.00;;
60306;SDS011;46155;52.364;6.580;2023-11-21T14:54:30;12.27;;;9.53;;
60306;SDS011;46155;52.364;6.580;2023-11-21T14:57:06;14.03;;;10.83;;
60306;SDS011;46155;52.364;6.580;2023-11-21T14:59:36;17.30;;;11.87;;
60306;SDS011;46155;52.364;6.580;2023-11-21T15:02:08;14.17;;;9.90;;
60306;SDS011;46155;52.364;6.580;2023-11-21T15:04:41;13.87;;;9.67;;
60306;SDS011;46155;52.364;6.580;2023-11-21T15:07:07;15.90;;;10.90;;
60306;SDS011;46155;52.364;6.580;2023-11-21T15:09:33;11.13;;;10.03;;
60306;SDS011;46155;52.364;6.580;2023-11-21T15:11:59;15.23;;;12.52;;
60306;SDS011;46155;52.364;6.580;2023-11-21T15:14:46;13.77;;;11.20;;
60306;SDS011;46155;52.364;6.580;2023-11-21T15:17:17;14.90;;;11.37;;
60306;SDS011;46155;52.364;6.580;2023-11-21T15:19:52;13.00;;;10.23;;
60306;SDS011;46155;52.364;6.580;2023-11-21T15:22:18;15.43;;;11.20;;
60306;SDS011;46155;52.364;6.580;2023-11-21T15:24:44;13.53;;;11.00;;
60306;SDS011;46155;52.364;6.580;2023-11-21T15:27:12;15.33;;;11.87;;
60306;SDS011;46155;52.364;6.580;2023-11-21T15:29:39;12.53;;;10.80;;
60306;SDS011;46155;52.364;6.580;2023-11-21T15:32:05;14.47;;;11.93;;
60306;SDS011;46155;52.364;6.580;2023-11-21T15:34:32;15.80;;;12.43;;
60306;SDS011;46155;52.364;6.580;2023-11-21T15:36:59;14.23;;;11.87;;
60306;SDS011;46155;52.364;6.580;2023-11-21T15:39:24;16.63;;;12.53;;
60306;SDS011;46155;52.364;6.580;2023-11-21T15:41:56;17.83;;;11.60;;
60306;SDS011;46155;52.364;6.580;2023-11-21T15:44:23;14.88;;;13.02;;
60306;SDS011;46155;52.364;6.580;2023-11-21T15:46:50;16.27;;;12.47;;
60306;SDS011;46155;52.364;6.580;2023-11-21T15:49:16;16.77;;;11.90;;
60306;SDS011;46155;52.364;6.580;2023-11-21T15:51:44;13.87;;;12.30;;
60306;SDS011;46155;52.364;6.580;2023-11-21T15:54:12;15.07;;;11.80;;
60306;SDS011;46155;52.364;6.580;2023-11-21T15:56:38;12.10;;;10.73;;
60306;SDS011;46155;52.364;6.580;2023-11-21T15:59:03;14.70;;;11.87;;
60306;SDS011;46155;52.364;6.580;2023-11-21T16:01:29;14.57;;;12.40;;
60306;SDS011;46155;52.364;6.580;2023-11-21T16:03:59;15.57;;;12.37;;
60306;SDS011;46155;52.364;6.580;2023-11-21T16:06:25;14.70;;;13.17;;
60306;SDS011;46155;52.364;6.580;2023-11-21T16:08:52;17.80;;;13.57;;
60306;SDS011;46155;52.364;6.580;2023-11-21T16:11:17;16.13;;;13.53;;
60306;SDS011;46155;52.364;6.580;2023-11-21T16:13:43;17.90;;;14.00;;
60306;SDS011;46155;52.364;6.580;2023-11-21T16:16:09;16.07;;;13.40;;
60306;SDS011;46155;52.364;6.580;2023-11-21T16:18:34;15.73;;;11.93;;
60306;SDS011;46155;52.364;6.580;2023-11-21T16:20:59;17.37;;;13.93;;
60306;SDS011;46155;52.364;6.580;2023-11-21T16:23:24;20.60;;;13.53;;
60306;SDS011;46155;52.364;6.580;2023-11-21T16:25:50;17.10;;;13.07;;
60306;SDS011;46155;52.364;6.580;2023-11-21T16:28:22;16.63;;;12.37;;
60306;SDS011;46155;52.364;6.580;2023-11-21T16:30:48;19.60;;;14.53;;
60306;SDS011;46155;52.364;6.580;2023-11-21T16:33:15;17.03;;;12.77;;
60306;SDS011;46155;52.364;6.580;2023-11-21T16:35:40;20.23;;;13.13;;
60306;SDS011;46155;52.364;6.580;2023-11-21T16:38:06;21.40;;;14.83;;
60306;SDS011;46155;52.364;6.580;2023-11-21T16:40:32;22.67;;;13.50;;
60306;SDS011;46155;52.364;6.580;2023-11-21T16:42:57;16.37;;;13.17;;
60306;SDS011;46155;52.364;6.580;2023-11-21T16:45:22;15.90;;;12.00;;
60306;SDS011;46155;52.364;6.580;2023-11-21T16:47:47;20.07;;;11.83;;
60306;SDS011;46155;52.364;6.580;2023-11-21T16:50:14;12.73;;;10.73;;
60306;SDS011;46155;52.364;6.580;2023-11-21T16:52:40;12.17;;;10.30;;
60306;SDS011;46155;52.364;6.580;2023-11-21T16:55:06;16.87;;;11.20;;
60306;SDS011;46155;52.364;6.580;2023-11-21T16:57:34;11.47;;;9.50;;
60306;SDS011;46155;52.364;6.580;2023-11-21T17:00:02;12.63;;;10.27;;
60306;SDS011;46155;52.364;6.580;2023-11-21T17:02:31;12.60;;;10.93;;
60306;SDS011;46155;52.364;6.580;2023-11-21T17:04:56;13.77;;;10.33;;
60306;SDS011;46155;52.364;6.580;2023-11-21T17:07:22;14.10;;;10.93;;
60306;SDS011;46155;52.364;6.580;2023-11-21T17:09:48;14.83;;;11.27;;
60306;SDS011;46155;52.364;6.580;2023-11-21T17:12:13;16.10;;;11.73;;
60306;SDS011;46155;52.364;6.580;2023-11-21T17:14:40;12.37;;;9.87;;
60306;SDS011;46155;52.364;6.580;2023-11-21T17:17:08;14.13;;;11.17;;
60306;SDS011;46155;52.364;6.580;2023-11-21T17:19:35;16.83;;;11.83;;
60306;SDS011;46155;52.364;6.580;2023-11-21T17:22:01;13.70;;;10.97;;
60306;SDS011;46155;52.364;6.580;2023-11-21T17:24:26;15.00;;;10.20;;
60306;SDS011;46155;52.364;6.580;2023-11-21T17:26:52;13.90;;;10.07;;
60306;SDS011;46155;52.364;6.580;2023-11-21T17:29:17;12.03;;;9.43;;
60306;SDS011;46155;52.364;6.580;2023-11-21T17:31:44;10.20;;;9.10;;
60306;SDS011;46155;52.364;6.580;2023-11-21T17:34:09;10.60;;;8.63;;
60306;SDS011;46155;52.364;6.580;2023-11-21T17:36:34;9.40;;;8.43;;
60306;SDS011;46155;52.364;6.580;2023-11-21T17:39:00;10.33;;;8.40;;
60306;SDS011;46155;52.364;6.580;2023-11-21T17:41:25;10.03;;;8.97;;
60306;SDS011;46155;52.364;6.580;2023-11-21T17:43:50;11.93;;;8.67;;
60306;SDS011;46155;52.364;6.580;2023-11-21T17:46:19;8.83;;;8.03;;
60306;SDS011;46155;52.364;6.580;2023-11-21T17:48:48;9.00;;;8.13;;
60306;SDS011;46155;52.364;6.580;2023-11-21T17:51:14;17.03;;;8.60;;
60306;SDS011;46155;52.364;6.580;2023-11-21T17:53:40;9.83;;;8.93;;
60306;SDS011;46155;52.364;6.580;2023-11-21T17:56:06;11.67;;;10.13;;
60306;SDS011;46155;52.364;6.580;2023-11-21T17:58:31;14.00;;;11.30;;
60306;SDS011;46155;52.364;6.580;2023-11-21T18:00:56;12.13;;;10.63;;
60306;SDS011;46155;52.364;6.580;2023-11-21T18:03:21;15.40;;;11.97;;
60306;SDS011;46155;52.364;6.580;2023-11-21T18:05:47;16.50;;;12.70;;
60306;SDS011;46155;52.364;6.580;2023-11-21T18:08:12;12.67;;;11.47;;
60306;SDS011;46155;52.364;6.580;2023-11-21T18:10:38;18.43;;;13.60;;
60306;SDS011;46155;52.364;6.580;2023-11-21T18:13:04;18.03;;;13.07;;
60306;SDS011;46155;52.364;6.580;2023-11-21T18:15:29;19.33;;;13.83;;
60306;SDS011;46155;52.364;6.580;2023-11-21T18:17:54;17.80;;;14.53;;
60306;SDS011;46155;52.364;6.580;2023-11-21T18:20:19;29.37;;;14.87;;
60306;SDS011;46155;52.364;6.580;2023-11-21T18:22:45;14.57;;;13.03;;
60306;SDS011;46155;52.364;6.580;2023-11-21T18:25:10;19.37;;;14.13;;
60306;SDS011;46155;52.364;6.580;2023-11-21T18:27:35;17.37;;;12.93;;
60306;SDS011;46155;52.364;6.580;2023-11-21T18:30:00;16.13;;;14.40;;
60306;SDS011;46155;52.364;6.580;2023-11-21T18:32:27;16.47;;;13.83;;
60306;SDS011;46155;52.364;6.580;2023-11-21T18:34:53;19.33;;;15.17;;